createdAt,value
2022-11-14T00:00:52.557Z,28.92
2022-11-14T00:03:22.387Z,30.65
2022-11-14T00:05:52.123Z,31.02
2022-11-14T00:08:23.498Z,33.33
2022-11-14T00:10:54.072Z,29.40
2022-11-14T00:13:23.991Z,31.55
2022-11-14T00:15:56.466Z,32.22
2022-11-14T00:18:26.723Z,31.65
2022-11-14T00:20:57.142Z,31.15
2022-11-14T00:23:26.947Z,29.92
2022-11-14T00:25:56.737Z,29.58
2022-11-14T00:28:26.528Z,31.40
2022-11-14T00:31:01.431Z,28.95
2022-11-14T00:33:31.193Z,29.88
2022-11-14T00:36:00.955Z,28.00
2022-11-14T00:38:31.058Z,28.75
2022-11-14T00:41:00.989Z,26.33
2022-11-14T00:43:30.786Z,28.50
2022-11-14T00:46:03.184Z,27.55
2022-11-14T00:48:33.160Z,25.35
2022-11-14T00:51:02.969Z,29.27
2022-11-14T00:53:32.872Z,30.98
2022-11-14T00:56:02.762Z,26.45
2022-11-14T00:58:32.748Z,27.55
2022-11-14T01:01:05.423Z,25.63
2022-11-14T01:03:35.424Z,27.13
2022-11-14T01:06:08.365Z,26.00
2022-11-14T01:08:38.283Z,28.38
2022-11-14T01:11:12.541Z,28.15
2022-11-14T01:13:42.835Z,30.77
2022-11-14T01:16:15.524Z,25.95
2022-11-14T01:18:45.451Z,27.23
2022-11-14T01:21:16.604Z,28.45
2022-11-14T01:23:46.416Z,30.98
2022-11-14T01:26:17.797Z,29.25
2022-11-14T01:28:47.606Z,29.33
2022-11-14T01:31:23.019Z,30.88
2022-11-14T01:33:54.075Z,30.17
2022-11-14T01:36:24.274Z,30.65
2022-11-14T01:38:57.307Z,30.35
2022-11-14T01:41:27.103Z,31.35
2022-11-14T01:43:56.960Z,29.77
2022-11-14T01:46:33.350Z,32.13
2022-11-14T01:49:07.918Z,29.17
2022-11-14T01:54:14.137Z,34.45
2022-11-14T01:59:21.445Z,30.92
2022-11-14T02:01:56.079Z,32.92
2022-11-14T02:04:30.077Z,32.05
2022-11-14T02:07:07.369Z,29.20
2022-11-14T02:09:39.862Z,28.70
2022-11-14T02:12:12.753Z,32.45
2022-11-14T02:14:45.224Z,30.40
2022-11-14T02:17:34.976Z,29.73
2022-11-14T02:20:19.654Z,29.15
2022-11-14T02:25:21.538Z,29.08
2022-11-14T02:27:52.267Z,29.42
2022-11-14T02:30:24.846Z,32.85
2022-11-14T02:33:10.370Z,35.72
2022-11-14T02:35:43.196Z,36.17
2022-11-14T02:38:13.248Z,35.45
2022-11-14T02:40:46.025Z,39.42
2022-11-14T02:43:15.809Z,39.17
2022-11-14T02:45:45.630Z,41.35
2022-11-14T02:48:15.567Z,40.78
2022-11-14T02:50:47.983Z,38.90
2022-11-14T02:53:17.791Z,38.13
2022-11-14T02:55:47.607Z,39.60
2022-11-14T02:58:17.368Z,40.95
2022-11-14T03:01:13.615Z,42.53
2022-11-14T03:03:36.834Z,38.97
2022-11-14T03:06:09.527Z,37.90
2022-11-14T03:08:39.277Z,36.90
2022-11-14T03:11:10.221Z,37.63
2022-11-14T03:13:40.030Z,38.38
2022-11-14T03:16:11.605Z,37.35
2022-11-14T03:18:41.603Z,36.30
2022-11-14T03:21:16.461Z,36.20
2022-11-14T03:23:46.964Z,36.80
2022-11-14T03:26:17.796Z,37.97
2022-11-14T03:28:47.630Z,40.50
2022-11-14T03:31:17.973Z,36.85
2022-11-14T03:33:47.751Z,43.13
2022-11-14T03:36:20.098Z,35.80
2022-11-14T03:38:49.843Z,34.10
2022-11-14T03:41:19.615Z,34.63
2022-11-14T03:43:49.462Z,36.42
2022-11-14T03:46:19.240Z,35.58
2022-11-14T03:48:49.008Z,34.15
2022-11-14T03:51:21.386Z,37.83
2022-11-14T03:53:51.113Z,33.92
2022-11-14T03:56:20.969Z,32.85
2022-11-14T03:58:50.701Z,32.22
2022-11-14T04:01:20.567Z,34.75
2022-11-14T04:03:50.384Z,30.73
2022-11-14T04:06:22.984Z,29.10
2022-11-14T04:08:53.015Z,32.38
2022-11-14T04:11:23.185Z,31.02
2022-11-14T04:13:52.963Z,33.38
2022-11-14T04:16:22.795Z,36.05
2022-11-14T04:18:52.560Z,30.25
2022-11-14T04:21:24.932Z,31.30
2022-11-14T04:23:54.773Z,31.52
2022-11-14T04:26:24.624Z,39.17
2022-11-14T04:28:54.366Z,34.03
2022-11-14T04:31:24.111Z,31.50
2022-11-14T04:33:53.817Z,31.45
2022-11-14T04:36:26.208Z,31.65
2022-11-14T04:38:55.973Z,35.15
2022-11-14T04:41:25.850Z,35.28
2022-11-14T04:43:55.697Z,34.10
2022-11-14T04:46:25.531Z,37.63
2022-11-14T04:48:55.301Z,29.08
2022-11-14T04:51:27.781Z,33.25
2022-11-14T04:53:57.548Z,35.67
2022-11-14T04:56:27.315Z,31.65
2022-11-14T04:58:57.083Z,34.42
2022-11-14T05:01:26.919Z,30.83
2022-11-14T05:03:56.662Z,30.85
2022-11-14T05:06:29.031Z,32.13
2022-11-14T05:08:58.879Z,31.75
2022-11-14T05:11:29.506Z,35.70
2022-11-14T05:13:59.334Z,35.22
2022-11-14T05:16:29.154Z,33.83
2022-11-14T05:18:58.906Z,37.78
2022-11-14T05:21:31.307Z,30.48
2022-11-14T05:24:01.183Z,30.45
2022-11-14T05:26:31.066Z,28.23
2022-11-14T05:29:00.816Z,29.58
2022-11-14T05:31:30.605Z,26.95
2022-11-14T05:34:00.466Z,26.27
2022-11-14T05:36:32.811Z,29.13
2022-11-14T05:39:02.793Z,30.42
2022-11-14T05:41:32.538Z,29.38
2022-11-14T05:44:02.344Z,24.90
2022-11-14T05:46:32.079Z,27.67
2022-11-14T05:49:01.852Z,27.35
2022-11-14T05:51:34.266Z,27.70
2022-11-14T05:54:04.033Z,22.92
2022-11-14T05:56:33.943Z,24.15
2022-11-14T05:59:03.715Z,22.08
2022-11-14T06:01:33.532Z,26.15
2022-11-14T06:04:03.380Z,24.35
2022-11-14T06:06:35.828Z,25.08
2022-11-14T06:09:05.620Z,22.73
2022-11-14T06:11:35.504Z,23.73
2022-11-14T06:14:10.490Z,21.50
2022-11-14T06:16:40.826Z,20.42
2022-11-14T06:19:10.604Z,23.35
2022-11-14T06:21:42.950Z,24.80
2022-11-14T06:24:12.869Z,22.83
2022-11-14T06:26:42.869Z,19.98
2022-11-14T06:29:13.347Z,23.42
2022-11-14T06:31:43.163Z,22.65
2022-11-14T06:34:14.154Z,20.25
2022-11-14T06:36:46.551Z,19.83
2022-11-14T06:39:16.285Z,19.70
2022-11-14T06:41:46.080Z,22.63
2022-11-14T06:44:16.384Z,22.48
2022-11-14T06:46:46.188Z,20.10
2022-11-14T06:49:15.930Z,19.25
2022-11-14T06:51:48.365Z,22.95
2022-11-14T06:54:18.281Z,20.17
2022-11-14T06:56:48.957Z,22.38
2022-11-14T06:59:18.801Z,20.23
2022-11-14T07:01:48.553Z,31.83
2022-11-14T07:04:18.569Z,18.58
2022-11-14T07:06:50.997Z,17.50
2022-11-14T07:09:20.769Z,20.15
2022-11-14T07:11:50.587Z,17.00
2022-11-14T07:14:20.358Z,16.25
2022-11-14T07:16:50.110Z,20.58
2022-11-14T07:19:19.916Z,15.68
2022-11-14T07:21:52.253Z,17.80
2022-11-14T07:24:22.112Z,16.50
2022-11-14T07:26:51.901Z,16.95
2022-11-14T07:29:22.200Z,19.55
2022-11-14T07:31:52.042Z,16.58
2022-11-14T07:34:21.800Z,18.33
2022-11-14T07:36:55.051Z,15.23
2022-11-14T07:39:24.859Z,17.90
2022-11-14T07:41:54.614Z,16.98
2022-11-14T07:44:24.387Z,16.23
2022-11-14T07:46:54.169Z,19.95
2022-11-14T07:49:23.976Z,17.10
2022-11-14T07:51:56.337Z,15.93
2022-11-14T07:54:26.059Z,16.95
2022-11-14T07:56:55.872Z,20.85
2022-11-14T07:59:25.638Z,20.80
2022-11-14T08:01:55.381Z,19.73
2022-11-14T08:04:26.143Z,25.83
2022-11-14T08:06:58.768Z,21.35
2022-11-14T08:09:28.566Z,17.23
2022-11-14T08:11:58.339Z,17.80
2022-11-14T08:14:28.156Z,21.45
2022-11-14T08:16:57.925Z,16.75
2022-11-14T08:19:27.691Z,18.25
2022-11-14T08:22:00.079Z,19.35
2022-11-14T08:24:30.064Z,18.13
2022-11-14T08:26:59.849Z,17.90
2022-11-14T08:29:29.653Z,17.92
2022-11-14T08:32:00.223Z,18.02
2022-11-14T08:34:30.472Z,17.02
2022-11-14T08:37:04.360Z,23.70
2022-11-14T08:39:34.138Z,15.80
2022-11-14T08:42:03.976Z,15.98
2022-11-14T08:44:33.791Z,18.05
2022-11-14T08:47:03.831Z,19.23
2022-11-14T08:49:33.625Z,16.58
2022-11-14T08:52:12.386Z,19.83
2022-11-14T08:54:46.195Z,18.83
2022-11-14T08:57:16.270Z,23.42
2022-11-14T08:59:46.078Z,21.42
2022-11-14T09:02:16.732Z,19.38
2022-11-14T09:04:46.693Z,19.65
2022-11-14T09:07:19.192Z,12.50
2022-11-14T09:09:49.127Z,7.72
2022-11-14T09:12:19.306Z,8.40
2022-11-14T09:14:49.084Z,6.00
2022-11-14T09:17:18.926Z,4.82
2022-11-14T09:19:48.737Z,9.88
2022-11-14T09:22:21.158Z,7.85
2022-11-14T09:24:52.072Z,4.50
2022-11-14T09:27:21.970Z,6.07
2022-11-14T09:29:51.717Z,4.88
2022-11-14T09:32:21.546Z,7.32
2022-11-14T09:34:53.206Z,5.53
2022-11-14T09:37:25.633Z,7.53
2022-11-14T09:39:55.529Z,7.13
2022-11-14T09:42:38.790Z,7.93
2022-11-14T09:45:15.040Z,11.00
2022-11-14T09:47:47.769Z,9.13
2022-11-14T09:50:25.509Z,10.48
2022-11-14T09:53:00.536Z,12.07
2022-11-14T09:58:07.861Z,9.18
2022-11-14T10:00:49.509Z,10.38
2022-11-14T10:03:25.355Z,9.00
2022-11-14T10:06:10.231Z,10.38
2022-11-14T10:11:26.297Z,9.02
2022-11-14T10:14:26.442Z,10.40
2022-11-14T10:17:10.773Z,8.80
2022-11-14T10:19:47.316Z,8.80
2022-11-14T10:22:29.124Z,10.52
2022-11-14T10:25:17.370Z,8.30
2022-11-14T10:28:04.846Z,12.23
2022-11-14T10:30:42.616Z,11.90
2022-11-14T10:33:29.946Z,8.27
2022-11-14T10:36:08.087Z,7.10
2022-11-14T10:38:44.140Z,9.05
2022-11-14T10:41:34.481Z,8.68
2022-11-14T10:44:10.927Z,8.80
2022-11-14T10:46:44.295Z,10.93
2022-11-14T10:49:21.954Z,8.63
2022-11-14T10:51:56.243Z,10.95
2022-11-14T10:54:30.655Z,7.93
2022-11-14T10:57:03.019Z,8.27
2022-11-14T10:59:32.803Z,11.65
2022-11-14T11:02:02.699Z,9.45
2022-11-14T11:04:34.195Z,7.50
2022-11-14T11:07:35.320Z,7.72
2022-11-14T11:10:19.590Z,10.45
2022-11-14T11:12:53.970Z,7.60
2022-11-14T11:15:26.852Z,9.90
2022-11-14T11:17:58.497Z,10.95
2022-11-14T11:20:34.802Z,9.13
2022-11-14T11:23:06.255Z,8.55
2022-11-14T11:25:37.155Z,8.00
2022-11-14T11:28:13.982Z,8.52
2022-11-14T11:30:57.438Z,9.10
2022-11-14T11:33:29.602Z,6.72
2022-11-14T11:36:02.524Z,7.97
2022-11-14T11:38:35.087Z,7.47
2022-11-14T11:41:33.209Z,5.22
2022-11-14T11:44:14.409Z,8.02
2022-11-14T11:46:50.649Z,7.97
2022-11-14T11:49:26.338Z,6.18
2022-11-14T11:51:58.451Z,6.18
2022-11-14T11:54:33.542Z,5.18
2022-11-14T11:57:08.315Z,7.63
2022-11-14T11:59:48.145Z,5.45
2022-11-14T12:02:25.798Z,7.53
2022-11-14T12:04:59.036Z,8.43
2022-11-14T12:07:40.441Z,7.75
2022-11-14T12:10:19.008Z,7.50
2022-11-14T12:13:28.591Z,7.75
2022-11-14T12:16:15.365Z,5.32
2022-11-14T12:19:10.893Z,5.05
2022-11-14T12:21:59.194Z,9.15
2022-11-14T12:24:52.423Z,5.38
2022-11-14T12:27:28.820Z,5.32
2022-11-14T12:30:14.903Z,7.05
2022-11-14T12:32:51.754Z,5.32
2022-11-14T12:35:25.388Z,6.38
2022-11-14T12:37:58.501Z,3.72
2022-11-14T12:40:32.030Z,4.22
2022-11-14T12:43:03.223Z,3.13
2022-11-14T12:46:08.071Z,2.90
2022-11-14T12:48:45.004Z,3.70
2022-11-14T12:51:52.329Z,4.97
2022-11-14T12:54:47.246Z,5.18
2022-11-14T12:57:41.566Z,3.03
2022-11-14T13:00:12.651Z,3.83
2022-11-14T13:03:07.931Z,3.75
2022-11-14T13:08:46.132Z,2.90
2022-11-14T13:11:55.549Z,5.45
2022-11-14T13:14:37.876Z,3.70
2022-11-14T13:17:38.005Z,4.80
2022-11-14T13:20:45.327Z,5.15
2022-11-14T13:23:45.295Z,3.55
2022-11-14T13:26:50.686Z,3.10
2022-11-14T13:32:12.885Z,5.63
2022-11-14T13:34:47.936Z,4.07
2022-11-14T13:37:35.112Z,6.57
2022-11-14T13:40:12.093Z,5.00
2022-11-14T13:42:53.315Z,5.68
2022-11-14T13:46:00.137Z,3.60
2022-11-14T13:48:54.704Z,4.55
2022-11-14T13:51:42.818Z,5.90
2022-11-14T13:54:18.001Z,6.57
2022-11-14T13:57:10.691Z,3.20
2022-11-14T13:59:54.794Z,4.82
2022-11-14T14:02:51.603Z,5.40
2022-11-14T14:05:37.435Z,3.88
2022-11-14T14:08:21.451Z,5.03
2022-11-14T14:11:05.640Z,5.30
2022-11-14T14:13:49.805Z,3.80
2022-11-14T14:16:37.015Z,5.18
2022-11-14T14:19:15.401Z,6.75
2022-11-14T14:21:54.151Z,7.43
2022-11-14T14:24:42.487Z,5.45
2022-11-14T14:27:29.000Z,4.47
2022-11-14T14:30:10.053Z,6.75
2022-11-14T14:32:40.089Z,4.28
2022-11-14T14:35:27.304Z,6.28
2022-11-14T14:38:00.471Z,4.78
2022-11-14T14:40:34.035Z,8.45
2022-11-14T14:43:05.492Z,3.83
2022-11-14T14:45:41.645Z,4.93
2022-11-14T14:48:17.883Z,7.00
2022-11-14T14:50:53.496Z,4.80
2022-11-14T14:53:28.040Z,5.82
2022-11-14T14:58:30.837Z,7.07
2022-11-14T15:01:03.430Z,5.18
2022-11-14T15:03:38.182Z,6.88
2022-11-14T15:06:20.569Z,6.13
2022-11-14T15:08:53.011Z,7.10
2022-11-14T15:11:22.928Z,4.10
2022-11-14T15:13:57.155Z,4.40
2022-11-14T15:16:28.306Z,6.22
2022-11-14T15:19:01.050Z,4.93
2022-11-14T15:21:32.331Z,6.30
2022-11-14T15:24:15.164Z,10.13
2022-11-14T15:26:47.277Z,6.20
2022-11-14T15:29:20.788Z,7.35
2022-11-14T15:31:52.796Z,6.10
2022-11-14T15:34:28.107Z,4.50
2022-11-14T15:37:21.638Z,7.57
2022-11-14T15:39:54.259Z,5.95
2022-11-14T15:42:50.069Z,4.30
2022-11-14T15:45:31.258Z,4.70
2022-11-14T15:48:04.994Z,5.35
2022-11-14T15:50:36.601Z,6.63
2022-11-14T15:53:09.128Z,5.05
2022-11-14T15:55:41.538Z,6.82
2022-11-14T15:58:29.268Z,3.97
2022-11-14T16:00:59.893Z,6.82
2022-11-14T16:03:29.991Z,4.63
2022-11-14T16:06:00.231Z,7.43
2022-11-14T16:08:30.299Z,6.78
2022-11-14T16:11:03.028Z,4.88
2022-11-14T16:13:33.274Z,5.80
2022-11-14T16:16:03.403Z,6.43
2022-11-14T16:18:33.260Z,8.65
2022-11-14T16:21:03.093Z,10.13
2022-11-14T16:23:33.068Z,9.15
2022-11-14T16:26:05.655Z,6.65
2022-11-14T16:28:35.478Z,9.80
2022-11-14T16:31:05.399Z,6.88
2022-11-14T16:33:35.356Z,6.03
2022-11-14T16:36:06.891Z,8.48
2022-11-14T16:38:39.802Z,7.18
2022-11-14T16:41:16.157Z,6.68
2022-11-14T16:43:45.997Z,15.68
2022-11-14T16:46:16.043Z,8.13
2022-11-14T16:48:46.143Z,6.97
2022-11-14T16:51:46.141Z,6.35
2022-11-14T16:54:06.001Z,13.05
2022-11-14T16:56:38.416Z,9.25
2022-11-14T16:59:08.794Z,8.27
2022-11-14T17:01:39.045Z,7.70
2022-11-14T17:04:09.077Z,9.93
2022-11-14T17:06:39.005Z,9.75
2022-11-14T17:09:09.014Z,7.07
2022-11-14T17:11:41.383Z,8.77
2022-11-14T17:14:11.132Z,7.93
2022-11-14T17:16:40.955Z,10.45
2022-11-14T17:19:10.751Z,10.18
2022-11-14T17:21:40.662Z,7.97
2022-11-14T17:24:10.823Z,6.63
2022-11-14T17:26:43.288Z,9.38
2022-11-14T17:29:13.100Z,6.88
2022-11-14T17:31:46.819Z,6.22
2022-11-14T17:34:17.024Z,7.63
2022-11-14T17:36:46.748Z,5.80
2022-11-14T17:39:16.889Z,7.22
2022-11-14T17:41:49.369Z,6.35
2022-11-14T17:44:19.195Z,8.43
2022-11-14T17:46:49.553Z,6.20
2022-11-14T17:49:19.342Z,8.75
2022-11-14T17:51:49.105Z,7.53
2022-11-14T17:54:18.846Z,8.57
2022-11-14T17:56:54.881Z,10.38
2022-11-14T17:59:24.993Z,7.47
2022-11-14T18:01:57.582Z,10.35
2022-11-14T18:04:27.438Z,7.38
2022-11-14T18:06:57.509Z,6.80
2022-11-14T18:09:29.455Z,8.55
2022-11-14T18:12:01.989Z,6.30
2022-11-14T18:14:31.734Z,6.70
2022-11-14T18:17:16.806Z,7.35
2022-11-14T18:19:46.884Z,6.57
2022-11-14T18:22:16.789Z,5.40
2022-11-14T18:24:47.329Z,6.93
2022-11-14T18:27:19.696Z,9.85
2022-11-14T18:29:49.751Z,6.60
2022-11-14T18:32:19.586Z,5.80
2022-11-14T18:34:49.520Z,6.50
2022-11-14T18:37:19.364Z,7.60
2022-11-14T18:39:49.466Z,7.30
2022-11-14T18:42:21.865Z,8.40
2022-11-14T18:44:51.640Z,7.57
2022-11-14T18:47:21.595Z,9.57
2022-11-14T18:49:51.365Z,9.68
2022-11-14T18:52:21.136Z,10.85
2022-11-14T18:54:50.908Z,11.15
2022-11-14T18:57:23.331Z,12.40
2022-11-14T18:59:53.253Z,11.77
2022-11-14T19:02:23.197Z,13.65
2022-11-14T19:04:53.149Z,9.45
2022-11-14T19:07:23.063Z,10.25
2022-11-14T19:09:52.951Z,14.02
2022-11-14T19:12:25.636Z,16.67
2022-11-14T19:14:56.655Z,23.73
2022-11-14T19:17:26.476Z,23.35
2022-11-14T19:19:56.300Z,18.50
2022-11-14T19:22:26.158Z,16.17
2022-11-14T19:24:57.889Z,16.02
2022-11-14T19:27:30.354Z,20.98
2022-11-14T19:30:00.249Z,18.27
2022-11-14T19:32:30.089Z,14.57
2022-11-14T19:34:59.997Z,16.60
2022-11-14T19:37:29.934Z,14.65
2022-11-14T19:40:00.108Z,13.18
2022-11-14T19:42:32.535Z,11.98
2022-11-14T19:45:02.342Z,14.45
2022-11-14T19:47:32.345Z,13.38
2022-11-14T19:50:02.249Z,13.68
2022-11-14T19:52:32.105Z,11.88
2022-11-14T19:55:01.964Z,10.68
2022-11-14T19:57:36.276Z,9.75
2022-11-14T20:00:06.766Z,11.40
2022-11-14T20:02:39.532Z,10.90
2022-11-14T20:05:10.865Z,15.68
2022-11-14T20:07:40.913Z,9.50
2022-11-14T20:10:11.612Z,10.73
2022-11-14T20:12:46.899Z,8.93
2022-11-14T20:15:17.087Z,9.93
2022-11-14T20:17:47.096Z,8.70
2022-11-14T20:20:17.831Z,10.52
2022-11-14T20:22:48.054Z,7.32
2022-11-14T20:25:18.400Z,8.57
2022-11-14T20:27:51.630Z,10.40
2022-11-14T20:30:21.838Z,5.22
2022-11-14T20:32:52.048Z,7.75
2022-11-14T20:35:22.255Z,8.95
2022-11-14T20:37:52.287Z,11.80
2022-11-14T20:40:24.569Z,8.20
2022-11-14T20:42:57.155Z,8.73
2022-11-14T20:45:27.311Z,6.57
2022-11-14T20:47:57.435Z,8.02
2022-11-14T20:50:27.442Z,6.85
2022-11-14T20:52:57.430Z,6.95
2022-11-14T20:55:27.450Z,6.80
2022-11-14T20:58:00.123Z,10.75
2022-11-14T21:00:30.139Z,9.57
2022-11-14T21:03:00.077Z,7.95
2022-11-14T21:08:14.369Z,6.53
2022-11-14T21:10:49.466Z,7.40
2022-11-14T21:13:38.492Z,10.73
2022-11-14T21:16:10.557Z,8.15
2022-11-14T21:18:45.212Z,6.65
2022-11-14T21:21:19.475Z,9.48
2022-11-14T21:23:50.384Z,7.47
2022-11-14T21:26:21.978Z,5.75
2022-11-14T21:28:57.209Z,6.70
2022-11-14T21:31:33.333Z,8.80
2022-11-14T21:34:05.040Z,9.57
2022-11-14T21:36:44.839Z,12.15
2022-11-14T21:39:17.407Z,9.38
2022-11-14T21:41:49.238Z,9.40
2022-11-14T21:44:22.343Z,15.15
2022-11-14T21:46:52.121Z,8.35
2022-11-14T21:49:22.004Z,9.75
2022-11-14T21:51:51.790Z,7.80
2022-11-14T21:54:22.057Z,10.30
2022-11-14T21:56:51.904Z,9.98
2022-11-14T21:59:27.518Z,10.73
2022-11-14T22:02:09.891Z,9.15
2022-11-14T22:04:40.489Z,10.50
2022-11-14T22:07:11.271Z,9.80
2022-11-14T22:09:45.108Z,9.00
2022-11-14T22:12:15.398Z,9.55
2022-11-14T22:14:47.827Z,10.13
2022-11-14T22:17:17.662Z,9.93
2022-11-14T22:19:47.541Z,9.43
2022-11-14T22:22:17.330Z,7.43
2022-11-14T22:24:47.195Z,8.43
2022-11-14T22:27:16.992Z,10.98
2022-11-14T22:29:49.361Z,9.43
2022-11-14T22:32:19.331Z,10.25
2022-11-14T22:34:49.113Z,8.75
2022-11-14T22:37:18.941Z,8.07
2022-11-14T22:39:48.714Z,10.98
2022-11-14T22:42:18.508Z,8.98
2022-11-14T22:44:50.836Z,9.23
2022-11-14T22:50:04.267Z,10.90
2022-11-14T22:52:34.067Z,10.63
2022-11-14T22:55:03.848Z,7.95
2022-11-14T22:57:33.591Z,8.93
2022-11-14T23:00:06.308Z,8.68
2022-11-14T23:02:36.089Z,8.25
2022-11-14T23:05:05.944Z,9.55
2022-11-14T23:07:35.979Z,7.63
2022-11-14T23:10:05.980Z,9.75
2022-11-14T23:12:35.756Z,9.85
2022-11-14T23:15:09.111Z,8.30
2022-11-14T23:17:38.874Z,8.95
2022-11-14T23:20:16.039Z,11.32
2022-11-14T23:22:46.398Z,8.48
2022-11-14T23:25:16.191Z,8.02
2022-11-14T23:27:48.971Z,8.50
2022-11-14T23:30:21.812Z,7.32
2022-11-14T23:32:51.581Z,10.55
2022-11-14T23:35:21.341Z,7.47
2022-11-14T23:37:51.227Z,8.05
2022-11-14T23:40:21.186Z,9.27
2022-11-14T23:42:50.981Z,9.57
2022-11-14T23:45:23.291Z,9.05
2022-11-14T23:47:53.054Z,8.88
2022-11-14T23:50:22.822Z,6.95
2022-11-14T23:52:52.557Z,6.28
2022-11-14T23:55:22.348Z,7.88
2022-11-14T23:57:54.270Z,7.32
